sensor_id;sensor_type;location;lat;lon;timestamp;P1;durP1;ratioP1;P2;durP2;ratioP2
37407;SDS011;24866;50.248;8.252;2023-02-21T00:00:53;28.50;;;13.73;;
37407;SDS011;24866;50.248;8.252;2023-02-21T00:03:41;20.90;;;10.32;;
37407;SDS011;24866;50.248;8.252;2023-02-21T00:06:28;19.70;;;10.52;;
37407;SDS011;24866;50.248;8.252;2023-02-21T00:09:16;20.48;;;11.70;;
37407;SDS011;24866;50.248;8.252;2023-02-21T00:12:05;20.27;;;10.48;;
37407;SDS011;24866;50.248;8.252;2023-02-21T00:14:52;23.17;;;11.88;;
37407;SDS011;24866;50.248;8.252;2023-02-21T00:17:40;21.52;;;10.80;;
37407;SDS011;24866;50.248;8.252;2023-02-21T00:20:28;20.77;;;10.45;;
37407;SDS011;24866;50.248;8.252;2023-02-21T00:23:15;24.48;;;11.93;;
37407;SDS011;24866;50.248;8.252;2023-02-21T00:26:04;27.45;;;13.38;;
37407;SDS011;24866;50.248;8.252;2023-02-21T00:28:51;25.67;;;12.43;;
37407;SDS011;24866;50.248;8.252;2023-02-21T00:31:38;21.85;;;11.43;;
37407;SDS011;24866;50.248;8.252;2023-02-21T00:34:25;23.00;;;11.27;;
37407;SDS011;24866;50.248;8.252;2023-02-21T00:37:13;20.85;;;11.85;;
37407;SDS011;24866;50.248;8.252;2023-02-21T00:40:00;19.55;;;9.60;;
37407;SDS011;24866;50.248;8.252;2023-02-21T00:42:49;22.00;;;11.57;;
37407;SDS011;24866;50.248;8.252;2023-02-21T00:45:36;20.45;;;10.43;;
37407;SDS011;24866;50.248;8.252;2023-02-21T00:48:23;18.48;;;10.18;;
37407;SDS011;24866;50.248;8.252;2023-02-21T00:51:11;23.90;;;11.07;;
37407;SDS011;24866;50.248;8.252;2023-02-21T00:53:58;17.15;;;10.05;;
37407;SDS011;24866;50.248;8.252;2023-02-21T00:56:46;19.40;;;11.13;;
37407;SDS011;24866;50.248;8.252;2023-02-21T00:59:34;18.75;;;10.43;;
37407;SDS011;24866;50.248;8.252;2023-02-21T01:02:22;22.85;;;10.80;;
37407;SDS011;24866;50.248;8.252;2023-02-21T01:05:09;26.65;;;13.32;;
37407;SDS011;24866;50.248;8.252;2023-02-21T01:07:56;20.15;;;10.82;;
37407;SDS011;24866;50.248;8.252;2023-02-21T01:10:43;20.10;;;10.93;;
37407;SDS011;24866;50.248;8.252;2023-02-21T01:13:30;19.70;;;10.32;;
37407;SDS011;24866;50.248;8.252;2023-02-21T01:16:19;18.60;;;10.02;;
37407;SDS011;24866;50.248;8.252;2023-02-21T01:19:07;19.15;;;9.85;;
37407;SDS011;24866;50.248;8.252;2023-02-21T01:21:54;20.42;;;10.25;;
37407;SDS011;24866;50.248;8.252;2023-02-21T01:24:41;20.80;;;10.60;;
37407;SDS011;24866;50.248;8.252;2023-02-21T01:27:28;24.75;;;11.30;;
37407;SDS011;24866;50.248;8.252;2023-02-21T01:30:16;19.50;;;9.48;;
37407;SDS011;24866;50.248;8.252;2023-02-21T01:33:04;18.02;;;10.48;;
37407;SDS011;24866;50.248;8.252;2023-02-21T01:35:52;21.45;;;10.55;;
37407;SDS011;24866;50.248;8.252;2023-02-21T01:38:39;24.85;;;9.85;;
37407;SDS011;24866;50.248;8.252;2023-02-21T01:41:27;17.77;;;9.50;;
37407;SDS011;24866;50.248;8.252;2023-02-21T01:44:28;19.20;;;9.25;;
37407;SDS011;24866;50.248;8.252;2023-02-21T01:47:19;19.85;;;10.00;;
37407;SDS011;24866;50.248;8.252;2023-02-21T01:50:09;19.42;;;9.20;;
37407;SDS011;24866;50.248;8.252;2023-02-21T01:53:02;20.42;;;9.02;;
37407;SDS011;24866;50.248;8.252;2023-02-21T01:55:51;20.92;;;9.50;;
37407;SDS011;24866;50.248;8.252;2023-02-21T01:58:42;18.42;;;9.13;;
37407;SDS011;24866;50.248;8.252;2023-02-21T02:01:32;16.95;;;9.15;;
37407;SDS011;24866;50.248;8.252;2023-02-21T02:04:24;18.63;;;10.05;;
37407;SDS011;24866;50.248;8.252;2023-02-21T02:07:13;15.73;;;8.77;;
37407;SDS011;24866;50.248;8.252;2023-02-21T02:10:00;22.88;;;10.35;;
37407;SDS011;24866;50.248;8.252;2023-02-21T02:12:55;20.70;;;9.32;;
37407;SDS011;24866;50.248;8.252;2023-02-21T02:15:43;19.63;;;9.87;;
37407;SDS011;24866;50.248;8.252;2023-02-21T02:18:40;17.75;;;10.20;;
37407;SDS011;24866;50.248;8.252;2023-02-21T02:24:42;21.90;;;10.95;;
37407;SDS011;24866;50.248;8.252;2023-02-21T02:27:43;19.38;;;10.88;;
37407;SDS011;24866;50.248;8.252;2023-02-21T02:30:39;23.40;;;11.88;;
37407;SDS011;24866;50.248;8.252;2023-02-21T02:33:37;20.38;;;11.35;;
37407;SDS011;24866;50.248;8.252;2023-02-21T02:36:24;18.60;;;9.87;;
37407;SDS011;24866;50.248;8.252;2023-02-21T02:39:01;21.98;;;10.88;;
37407;SDS011;24866;50.248;8.252;2023-02-21T02:41:43;19.17;;;9.82;;
37407;SDS011;24866;50.248;8.252;2023-02-21T02:44:18;20.10;;;9.60;;
37407;SDS011;24866;50.248;8.252;2023-02-21T02:46:51;23.13;;;10.70;;
37407;SDS011;24866;50.248;8.252;2023-02-21T02:49:25;19.90;;;10.27;;
37407;SDS011;24866;50.248;8.252;2023-02-21T02:52:03;20.00;;;10.27;;
37407;SDS011;24866;50.248;8.252;2023-02-21T02:54:34;21.10;;;10.90;;
37407;SDS011;24866;50.248;8.252;2023-02-21T02:57:04;24.02;;;12.73;;
37407;SDS011;24866;50.248;8.252;2023-02-21T02:59:41;28.30;;;11.98;;
37407;SDS011;24866;50.248;8.252;2023-02-21T03:02:23;21.45;;;11.27;;
37407;SDS011;24866;50.248;8.252;2023-02-21T03:08:04;22.33;;;11.80;;
37407;SDS011;24866;50.248;8.252;2023-02-21T03:10:41;23.20;;;11.95;;
37407;SDS011;24866;50.248;8.252;2023-02-21T03:13:15;23.45;;;12.60;;
37407;SDS011;24866;50.248;8.252;2023-02-21T03:15:51;28.40;;;12.55;;
37407;SDS011;24866;50.248;8.252;2023-02-21T03:18:26;23.67;;;12.07;;
37407;SDS011;24866;50.248;8.252;2023-02-21T03:20:59;25.70;;;13.27;;
37407;SDS011;24866;50.248;8.252;2023-02-21T03:23:33;24.02;;;12.18;;
37407;SDS011;24866;50.248;8.252;2023-02-21T03:26:06;24.63;;;13.18;;
37407;SDS011;24866;50.248;8.252;2023-02-21T03:28:39;22.73;;;12.32;;
37407;SDS011;24866;50.248;8.252;2023-02-21T03:31:12;23.05;;;12.32;;
37407;SDS011;24866;50.248;8.252;2023-02-21T03:33:45;24.45;;;10.93;;
37407;SDS011;24866;50.248;8.252;2023-02-21T03:36:15;20.23;;;11.13;;
37407;SDS011;24866;50.248;8.252;2023-02-21T03:38:47;24.13;;;11.93;;
37407;SDS011;24866;50.248;8.252;2023-02-21T03:41:17;23.25;;;12.02;;
37407;SDS011;24866;50.248;8.252;2023-02-21T03:43:47;23.45;;;12.82;;
37407;SDS011;24866;50.248;8.252;2023-02-21T03:46:17;22.38;;;11.15;;
37407;SDS011;24866;50.248;8.252;2023-02-21T03:48:47;22.27;;;10.55;;
37407;SDS011;24866;50.248;8.252;2023-02-21T03:51:18;19.83;;;9.75;;
37407;SDS011;24866;50.248;8.252;2023-02-21T03:53:49;18.83;;;9.32;;
37407;SDS011;24866;50.248;8.252;2023-02-21T03:56:19;17.23;;;9.80;;
37407;SDS011;24866;50.248;8.252;2023-02-21T03:58:49;20.20;;;9.65;;
37407;SDS011;24866;50.248;8.252;2023-02-21T04:01:20;22.85;;;11.52;;
37407;SDS011;24866;50.248;8.252;2023-02-21T04:03:50;22.42;;;12.98;;
37407;SDS011;24866;50.248;8.252;2023-02-21T04:06:20;23.30;;;12.02;;
37407;SDS011;24866;50.248;8.252;2023-02-21T04:08:51;20.83;;;10.40;;
37407;SDS011;24866;50.248;8.252;2023-02-21T04:11:21;21.48;;;11.10;;
37407;SDS011;24866;50.248;8.252;2023-02-21T04:13:51;20.88;;;11.88;;
37407;SDS011;24866;50.248;8.252;2023-02-21T04:16:21;23.20;;;12.00;;
37407;SDS011;24866;50.248;8.252;2023-02-21T04:18:51;20.88;;;11.27;;
37407;SDS011;24866;50.248;8.252;2023-02-21T04:21:21;20.77;;;11.85;;
37407;SDS011;24866;50.248;8.252;2023-02-21T04:23:53;21.75;;;11.52;;
37407;SDS011;24866;50.248;8.252;2023-02-21T04:26:22;23.23;;;10.93;;
37407;SDS011;24866;50.248;8.252;2023-02-21T04:28:53;22.45;;;12.00;;
37407;SDS011;24866;50.248;8.252;2023-02-21T04:31:23;23.58;;;11.90;;
37407;SDS011;24866;50.248;8.252;2023-02-21T04:33:53;19.83;;;9.88;;
37407;SDS011;24866;50.248;8.252;2023-02-21T04:36:23;19.83;;;11.20;;
37407;SDS011;24866;50.248;8.252;2023-02-21T04:38:54;19.60;;;10.18;;
37407;SDS011;24866;50.248;8.252;2023-02-21T04:41:24;16.63;;;9.88;;
37407;SDS011;24866;50.248;8.252;2023-02-21T04:43:54;20.50;;;9.73;;
37407;SDS011;24866;50.248;8.252;2023-02-21T04:46:24;20.00;;;10.38;;
37407;SDS011;24866;50.248;8.252;2023-02-21T04:48:54;17.42;;;9.85;;
37407;SDS011;24866;50.248;8.252;2023-02-21T04:51:24;18.13;;;10.13;;
37407;SDS011;24866;50.248;8.252;2023-02-21T04:53:56;19.38;;;10.60;;
37407;SDS011;24866;50.248;8.252;2023-02-21T04:56:26;19.23;;;9.73;;
37407;SDS011;24866;50.248;8.252;2023-02-21T04:58:56;16.95;;;9.70;;
37407;SDS011;24866;50.248;8.252;2023-02-21T05:01:28;20.45;;;9.13;;
37407;SDS011;24866;50.248;8.252;2023-02-21T05:03:59;14.77;;;8.15;;
37407;SDS011;24866;50.248;8.252;2023-02-21T05:06:30;15.68;;;8.88;;
37407;SDS011;24866;50.248;8.252;2023-02-21T05:09:02;14.88;;;8.98;;
37407;SDS011;24866;50.248;8.252;2023-02-21T05:11:33;19.40;;;8.50;;
37407;SDS011;24866;50.248;8.252;2023-02-21T05:14:03;22.25;;;9.98;;
37407;SDS011;24866;50.248;8.252;2023-02-21T05:16:33;17.00;;;8.88;;
37407;SDS011;24866;50.248;8.252;2023-02-21T05:19:03;16.77;;;8.75;;
37407;SDS011;24866;50.248;8.252;2023-02-21T05:21:33;15.00;;;8.05;;
37407;SDS011;24866;50.248;8.252;2023-02-21T05:24:06;14.23;;;7.95;;
37407;SDS011;24866;50.248;8.252;2023-02-21T05:26:37;14.18;;;7.28;;
37407;SDS011;24866;50.248;8.252;2023-02-21T05:29:07;14.25;;;8.05;;
37407;SDS011;24866;50.248;8.252;2023-02-21T05:31:37;14.43;;;7.72;;
37407;SDS011;24866;50.248;8.252;2023-02-21T05:34:07;13.27;;;6.53;;
37407;SDS011;24866;50.248;8.252;2023-02-21T05:36:37;17.25;;;6.82;;
37407;SDS011;24866;50.248;8.252;2023-02-21T05:39:08;12.27;;;6.63;;
37407;SDS011;24866;50.248;8.252;2023-02-21T05:41:44;13.23;;;6.50;;
37407;SDS011;24866;50.248;8.252;2023-02-21T05:44:15;15.15;;;6.85;;
37407;SDS011;24866;50.248;8.252;2023-02-21T05:46:45;15.13;;;8.23;;
37407;SDS011;24866;50.248;8.252;2023-02-21T05:49:16;19.85;;;8.82;;
37407;SDS011;24866;50.248;8.252;2023-02-21T05:51:46;16.63;;;9.43;;
37407;SDS011;24866;50.248;8.252;2023-02-21T05:54:18;19.42;;;11.00;;
37407;SDS011;24866;50.248;8.252;2023-02-21T05:56:50;21.33;;;10.93;;
37407;SDS011;24866;50.248;8.252;2023-02-21T05:59:21;32.45;;;14.82;;
37407;SDS011;24866;50.248;8.252;2023-02-21T06:01:52;20.05;;;10.10;;
37407;SDS011;24866;50.248;8.252;2023-02-21T06:04:22;17.63;;;9.35;;
37407;SDS011;24866;50.248;8.252;2023-02-21T06:06:54;19.77;;;9.40;;
37407;SDS011;24866;50.248;8.252;2023-02-21T06:09:27;19.38;;;9.25;;
37407;SDS011;24866;50.248;8.252;2023-02-21T06:11:58;19.65;;;9.48;;
37407;SDS011;24866;50.248;8.252;2023-02-21T06:14:27;20.20;;;9.43;;
37407;SDS011;24866;50.248;8.252;2023-02-21T06:16:59;21.35;;;10.52;;
37407;SDS011;24866;50.248;8.252;2023-02-21T06:19:29;18.30;;;9.82;;
37407;SDS011;24866;50.248;8.252;2023-02-21T06:21:59;22.52;;;11.52;;
37407;SDS011;24866;50.248;8.252;2023-02-21T06:24:31;23.27;;;11.43;;
37407;SDS011;24866;50.248;8.252;2023-02-21T06:27:01;19.58;;;11.32;;
37407;SDS011;24866;50.248;8.252;2023-02-21T06:29:31;22.85;;;10.95;;
37407;SDS011;24866;50.248;8.252;2023-02-21T06:32:01;23.35;;;11.00;;
37407;SDS011;24866;50.248;8.252;2023-02-21T06:34:31;21.38;;;11.52;;
37407;SDS011;24866;50.248;8.252;2023-02-21T06:37:02;22.92;;;11.80;;
37407;SDS011;24866;50.248;8.252;2023-02-21T06:39:33;21.27;;;11.38;;
37407;SDS011;24866;50.248;8.252;2023-02-21T06:42:04;19.45;;;10.02;;
37407;SDS011;24866;50.248;8.252;2023-02-21T06:44:34;19.00;;;10.38;;
37407;SDS011;24866;50.248;8.252;2023-02-21T06:47:04;20.17;;;11.02;;
37407;SDS011;24866;50.248;8.252;2023-02-21T06:49:34;19.92;;;10.65;;
37407;SDS011;24866;50.248;8.252;2023-02-21T06:52:04;20.73;;;10.02;;
37407;SDS011;24866;50.248;8.252;2023-02-21T06:54:36;18.23;;;9.95;;
37407;SDS011;24866;50.248;8.252;2023-02-21T06:57:06;20.90;;;10.45;;
37407;SDS011;24866;50.248;8.252;2023-02-21T06:59:36;19.17;;;10.27;;
37407;SDS011;24866;50.248;8.252;2023-02-21T07:02:07;18.95;;;10.32;;
37407;SDS011;24866;50.248;8.252;2023-02-21T07:04:43;20.80;;;10.90;;
37407;SDS011;24866;50.248;8.252;2023-02-21T07:07:13;19.70;;;10.25;;
37407;SDS011;24866;50.248;8.252;2023-02-21T07:09:46;21.48;;;10.57;;
37407;SDS011;24866;50.248;8.252;2023-02-21T07:12:16;19.48;;;10.30;;
37407;SDS011;24866;50.248;8.252;2023-02-21T07:14:46;17.15;;;8.70;;
37407;SDS011;24866;50.248;8.252;2023-02-21T07:17:16;14.73;;;9.20;;
37407;SDS011;24866;50.248;8.252;2023-02-21T07:19:46;17.27;;;9.52;;
37407;SDS011;24866;50.248;8.252;2023-02-21T07:22:16;17.52;;;9.52;;
37407;SDS011;24866;50.248;8.252;2023-02-21T07:24:54;15.30;;;8.18;;
37407;SDS011;24866;50.248;8.252;2023-02-21T07:27:25;12.77;;;8.70;;
37407;SDS011;24866;50.248;8.252;2023-02-21T07:29:54;18.60;;;8.85;;
37407;SDS011;24866;50.248;8.252;2023-02-21T07:32:25;15.13;;;8.00;;
37407;SDS011;24866;50.248;8.252;2023-02-21T07:34:56;18.30;;;9.52;;
37407;SDS011;24866;50.248;8.252;2023-02-21T07:37:26;16.15;;;8.23;;
37407;SDS011;24866;50.248;8.252;2023-02-21T07:39:57;15.10;;;8.57;;
37407;SDS011;24866;50.248;8.252;2023-02-21T07:42:28;16.77;;;9.30;;
37407;SDS011;24866;50.248;8.252;2023-02-21T07:44:58;16.25;;;8.93;;
37407;SDS011;24866;50.248;8.252;2023-02-21T07:47:29;19.48;;;9.07;;
37407;SDS011;24866;50.248;8.252;2023-02-21T07:49:59;17.63;;;9.32;;
37407;SDS011;24866;50.248;8.252;2023-02-21T07:52:29;16.55;;;9.88;;
37407;SDS011;24866;50.248;8.252;2023-02-21T07:55:00;15.25;;;10.20;;
37407;SDS011;24866;50.248;8.252;2023-02-21T07:57:31;16.77;;;9.17;;
37407;SDS011;24866;50.248;8.252;2023-02-21T08:00:01;16.08;;;8.18;;
37407;SDS011;24866;50.248;8.252;2023-02-21T08:02:31;15.63;;;8.52;;
37407;SDS011;24866;50.248;8.252;2023-02-21T08:05:03;16.92;;;9.27;;
37407;SDS011;24866;50.248;8.252;2023-02-21T08:07:33;13.98;;;8.00;;
37407;SDS011;24866;50.248;8.252;2023-02-21T08:10:06;15.63;;;9.02;;
37407;SDS011;24866;50.248;8.252;2023-02-21T08:12:38;13.55;;;8.20;;
37407;SDS011;24866;50.248;8.252;2023-02-21T08:15:08;13.90;;;8.40;;
37407;SDS011;24866;50.248;8.252;2023-02-21T08:17:38;15.75;;;9.10;;
37407;SDS011;24866;50.248;8.252;2023-02-21T08:20:09;16.02;;;8.13;;
37407;SDS011;24866;50.248;8.252;2023-02-21T08:22:39;13.13;;;8.30;;
37407;SDS011;24866;50.248;8.252;2023-02-21T08:25:11;16.83;;;9.38;;
37407;SDS011;24866;50.248;8.252;2023-02-21T08:30:15;19.40;;;9.93;;
37407;SDS011;24866;50.248;8.252;2023-02-21T08:32:49;16.85;;;9.90;;
37407;SDS011;24866;50.248;8.252;2023-02-21T08:35:20;18.73;;;10.32;;
37407;SDS011;24866;50.248;8.252;2023-02-21T08:37:50;16.25;;;9.18;;
37407;SDS011;24866;50.248;8.252;2023-02-21T08:40:25;16.08;;;8.63;;
37407;SDS011;24866;50.248;8.252;2023-02-21T08:42:55;13.63;;;8.48;;
37407;SDS011;24866;50.248;8.252;2023-02-21T08:45:26;17.33;;;8.77;;
37407;SDS011;24866;50.248;8.252;2023-02-21T08:47:57;17.48;;;9.10;;
37407;SDS011;24866;50.248;8.252;2023-02-21T08:50:28;16.90;;;9.25;;
37407;SDS011;24866;50.248;8.252;2023-02-21T08:52:58;20.60;;;9.98;;
37407;SDS011;24866;50.248;8.252;2023-02-21T08:55:29;16.40;;;9.10;;
37407;SDS011;24866;50.248;8.252;2023-02-21T08:57:59;16.48;;;9.50;;
37407;SDS011;24866;50.248;8.252;2023-02-21T09:00:29;12.75;;;8.07;;
37407;SDS011;24866;50.248;8.252;2023-02-21T09:03:00;15.15;;;8.55;;
37407;SDS011;24866;50.248;8.252;2023-02-21T09:05:30;16.60;;;9.15;;
37407;SDS011;24866;50.248;8.252;2023-02-21T09:08:00;14.20;;;8.80;;
37407;SDS011;24866;50.248;8.252;2023-02-21T09:10:33;14.27;;;8.77;;
37407;SDS011;24866;50.248;8.252;2023-02-21T09:13:05;14.35;;;8.73;;
37407;SDS011;24866;50.248;8.252;2023-02-21T09:15:35;14.50;;;8.20;;
37407;SDS011;24866;50.248;8.252;2023-02-21T09:18:05;15.80;;;9.07;;
37407;SDS011;24866;50.248;8.252;2023-02-21T09:20:35;15.68;;;8.82;;
37407;SDS011;24866;50.248;8.252;2023-02-21T09:23:09;13.82;;;8.30;;
37407;SDS011;24866;50.248;8.252;2023-02-21T09:25:40;16.50;;;8.70;;
37407;SDS011;24866;50.248;8.252;2023-02-21T09:28:10;16.17;;;10.60;;
37407;SDS011;24866;50.248;8.252;2023-02-21T09:30:40;15.63;;;8.50;;
37407;SDS011;24866;50.248;8.252;2023-02-21T09:33:10;14.93;;;9.35;;
37407;SDS011;24866;50.248;8.252;2023-02-21T09:35:41;16.13;;;8.88;;
37407;SDS011;24866;50.248;8.252;2023-02-21T09:38:10;19.73;;;10.18;;
37407;SDS011;24866;50.248;8.252;2023-02-21T09:40:43;15.38;;;8.95;;
37407;SDS011;24866;50.248;8.252;2023-02-21T09:43:19;13.98;;;8.18;;
37407;SDS011;24866;50.248;8.252;2023-02-21T09:45:54;17.55;;;8.15;;
37407;SDS011;24866;50.248;8.252;2023-02-21T09:48:27;16.15;;;9.02;;
37407;SDS011;24866;50.248;8.252;2023-02-21T09:50:58;15.90;;;8.80;;
37407;SDS011;24866;50.248;8.252;2023-02-21T09:53:32;13.70;;;9.23;;
37407;SDS011;24866;50.248;8.252;2023-02-21T09:56:07;12.57;;;8.50;;
37407;SDS011;24866;50.248;8.252;2023-02-21T09:58:42;14.52;;;9.63;;
37407;SDS011;24866;50.248;8.252;2023-02-21T10:01:16;14.55;;;8.90;;
37407;SDS011;24866;50.248;8.252;2023-02-21T10:03:53;14.52;;;9.35;;
37407;SDS011;24866;50.248;8.252;2023-02-21T10:06:35;15.95;;;9.30;;
37407;SDS011;24866;50.248;8.252;2023-02-21T10:09:17;15.38;;;8.63;;
37407;SDS011;24866;50.248;8.252;2023-02-21T10:12:04;18.02;;;9.45;;
37407;SDS011;24866;50.248;8.252;2023-02-21T10:17:18;15.05;;;8.80;;
37407;SDS011;24866;50.248;8.252;2023-02-21T10:19:52;13.18;;;8.60;;
37407;SDS011;24866;50.248;8.252;2023-02-21T10:22:27;13.48;;;8.52;;
37407;SDS011;24866;50.248;8.252;2023-02-21T10:25:01;13.05;;;8.57;;
37407;SDS011;24866;50.248;8.252;2023-02-21T10:27:51;16.15;;;9.20;;
37407;SDS011;24866;50.248;8.252;2023-02-21T10:30:25;14.43;;;9.20;;
37407;SDS011;24866;50.248;8.252;2023-02-21T10:32:58;15.32;;;8.73;;
37407;SDS011;24866;50.248;8.252;2023-02-21T10:35:33;14.23;;;8.65;;
37407;SDS011;24866;50.248;8.252;2023-02-21T10:38:05;14.68;;;9.02;;
37407;SDS011;24866;50.248;8.252;2023-02-21T10:40:38;14.35;;;8.68;;
37407;SDS011;24866;50.248;8.252;2023-02-21T10:43:14;12.55;;;8.90;;
37407;SDS011;24866;50.248;8.252;2023-02-21T10:45:48;15.18;;;8.55;;
37407;SDS011;24866;50.248;8.252;2023-02-21T10:48:23;12.13;;;8.40;;
37407;SDS011;24866;50.248;8.252;2023-02-21T10:51:03;15.73;;;8.77;;
37407;SDS011;24866;50.248;8.252;2023-02-21T10:53:36;16.17;;;9.70;;
37407;SDS011;24866;50.248;8.252;2023-02-21T10:56:12;12.73;;;8.15;;
37407;SDS011;24866;50.248;8.252;2023-02-21T10:58:50;12.20;;;8.23;;
37407;SDS011;24866;50.248;8.252;2023-02-21T11:01:29;16.17;;;9.73;;
37407;SDS011;24866;50.248;8.252;2023-02-21T11:04:03;16.17;;;9.00;;
37407;SDS011;24866;50.248;8.252;2023-02-21T11:06:36;14.68;;;9.65;;
37407;SDS011;24866;50.248;8.252;2023-02-21T11:09:22;15.05;;;8.73;;
37407;SDS011;24866;50.248;8.252;2023-02-21T11:12:02;12.10;;;8.70;;
37407;SDS011;24866;50.248;8.252;2023-02-21T11:14:35;13.13;;;8.30;;
37407;SDS011;24866;50.248;8.252;2023-02-21T11:17:08;12.73;;;7.85;;
37407;SDS011;24866;50.248;8.252;2023-02-21T11:19:47;15.48;;;8.65;;
37407;SDS011;24866;50.248;8.252;2023-02-21T11:22:20;16.38;;;8.93;;
37407;SDS011;24866;50.248;8.252;2023-02-21T11:24:57;12.52;;;8.48;;
37407;SDS011;24866;50.248;8.252;2023-02-21T11:27:33;14.18;;;7.82;;
37407;SDS011;24866;50.248;8.252;2023-02-21T11:32:46;13.68;;;7.63;;
37407;SDS011;24866;50.248;8.252;2023-02-21T11:35:22;11.98;;;7.43;;
37407;SDS011;24866;50.248;8.252;2023-02-21T11:37:55;13.93;;;8.00;;
37407;SDS011;24866;50.248;8.252;2023-02-21T11:40:27;13.88;;;8.55;;
37407;SDS011;24866;50.248;8.252;2023-02-21T11:45:56;12.55;;;7.00;;
37407;SDS011;24866;50.248;8.252;2023-02-21T11:48:46;13.77;;;8.02;;
37407;SDS011;24866;50.248;8.252;2023-02-21T11:51:26;11.77;;;8.38;;
37407;SDS011;24866;50.248;8.252;2023-02-21T11:54:06;11.55;;;7.85;;
37407;SDS011;24866;50.248;8.252;2023-02-21T11:56:50;12.52;;;7.43;;
37407;SDS011;24866;50.248;8.252;2023-02-21T11:59:33;10.88;;;7.53;;
37407;SDS011;24866;50.248;8.252;2023-02-21T12:05:24;14.10;;;8.98;;
37407;SDS011;24866;50.248;8.252;2023-02-21T12:08:07;9.65;;;6.55;;
37407;SDS011;24866;50.248;8.252;2023-02-21T12:10:51;11.15;;;5.80;;
37407;SDS011;24866;50.248;8.252;2023-02-21T12:13:30;12.18;;;7.22;;
37407;SDS011;24866;50.248;8.252;2023-02-21T12:16:08;8.57;;;5.88;;
37407;SDS011;24866;50.248;8.252;2023-02-21T12:18:55;9.15;;;5.53;;
37407;SDS011;24866;50.248;8.252;2023-02-21T12:21:46;8.88;;;5.97;;
37407;SDS011;24866;50.248;8.252;2023-02-21T12:24:43;9.20;;;6.22;;
37407;SDS011;24866;50.248;8.252;2023-02-21T12:27:26;7.63;;;4.72;;
37407;SDS011;24866;50.248;8.252;2023-02-21T12:30:17;8.80;;;5.30;;
37407;SDS011;24866;50.248;8.252;2023-02-21T12:33:07;7.10;;;4.97;;
37407;SDS011;24866;50.248;8.252;2023-02-21T12:35:59;7.88;;;5.13;;
37407;SDS011;24866;50.248;8.252;2023-02-21T12:38:47;7.68;;;4.28;;
37407;SDS011;24866;50.248;8.252;2023-02-21T12:41:29;8.95;;;4.22;;
37407;SDS011;24866;50.248;8.252;2023-02-21T12:44:16;6.03;;;4.10;;
37407;SDS011;24866;50.248;8.252;2023-02-21T12:46:51;8.45;;;5.18;;
37407;SDS011;24866;50.248;8.252;2023-02-21T12:49:25;11.43;;;5.07;;
37407;SDS011;24866;50.248;8.252;2023-02-21T12:52:03;7.30;;;4.80;;
37407;SDS011;24866;50.248;8.252;2023-02-21T12:54:43;10.48;;;5.13;;
37407;SDS011;24866;50.248;8.252;2023-02-21T12:57:17;6.45;;;4.03;;
37407;SDS011;24866;50.248;8.252;2023-02-21T12:59:54;6.22;;;3.95;;
37407;SDS011;24866;50.248;8.252;2023-02-21T13:02:37;5.10;;;3.38;;
37407;SDS011;24866;50.248;8.252;2023-02-21T13:05:14;7.95;;;4.07;;
37407;SDS011;24866;50.248;8.252;2023-02-21T13:07:49;7.03;;;3.40;;
37407;SDS011;24866;50.248;8.252;2023-02-21T13:10:25;8.68;;;3.42;;
37407;SDS011;24866;50.248;8.252;2023-02-21T13:13:01;6.50;;;4.18;;
37407;SDS011;24866;50.248;8.252;2023-02-21T13:15:36;6.65;;;4.05;;
37407;SDS011;24866;50.248;8.252;2023-02-21T13:18:25;7.55;;;4.68;;
37407;SDS011;24866;50.248;8.252;2023-02-21T13:20:59;10.07;;;5.55;;
37407;SDS011;24866;50.248;8.252;2023-02-21T13:27:12;11.00;;;5.22;;
37407;SDS011;24866;50.248;8.252;2023-02-21T13:30:02;7.85;;;4.50;;
37407;SDS011;24866;50.248;8.252;2023-02-21T13:32:48;8.73;;;5.22;;
37407;SDS011;24866;50.248;8.252;2023-02-21T13:35:27;11.73;;;5.72;;
37407;SDS011;24866;50.248;8.252;2023-02-21T13:38:00;11.15;;;5.22;;
37407;SDS011;24866;50.248;8.252;2023-02-21T13:40:34;9.75;;;5.85;;
37407;SDS011;24866;50.248;8.252;2023-02-21T13:45:41;9.90;;;5.35;;
37407;SDS011;24866;50.248;8.252;2023-02-21T13:51:00;9.95;;;5.45;;
37407;SDS011;24866;50.248;8.252;2023-02-21T13:53:31;8.57;;;5.43;;
37407;SDS011;24866;50.248;8.252;2023-02-21T14:02:16;10.88;;;4.93;;
37407;SDS011;24866;50.248;8.252;2023-02-21T14:04:58;8.52;;;5.45;;
37407;SDS011;24866;50.248;8.252;2023-02-21T14:07:47;11.13;;;5.47;;
37407;SDS011;24866;50.248;8.252;2023-02-21T14:10:38;10.95;;;5.68;;
37407;SDS011;24866;50.248;8.252;2023-02-21T14:13:22;9.93;;;5.75;;
37407;SDS011;24866;50.248;8.252;2023-02-21T14:16:09;10.18;;;5.35;;
37407;SDS011;24866;50.248;8.252;2023-02-21T14:18:48;9.65;;;4.90;;
37407;SDS011;24866;50.248;8.252;2023-02-21T14:21:23;8.70;;;4.55;;
37407;SDS011;24866;50.248;8.252;2023-02-21T14:23:56;9.65;;;5.38;;
37407;SDS011;24866;50.248;8.252;2023-02-21T14:29:29;12.27;;;5.30;;
37407;SDS011;24866;50.248;8.252;2023-02-21T14:32:23;10.32;;;5.30;;
37407;SDS011;24866;50.248;8.252;2023-02-21T14:34:59;9.30;;;4.45;;
37407;SDS011;24866;50.248;8.252;2023-02-21T14:37:41;9.25;;;5.35;;
37407;SDS011;24866;50.248;8.252;2023-02-21T14:40:23;9.38;;;4.88;;
37407;SDS011;24866;50.248;8.252;2023-02-21T14:43:05;12.25;;;5.00;;
37407;SDS011;24866;50.248;8.252;2023-02-21T14:45:58;10.65;;;6.18;;
37407;SDS011;24866;50.248;8.252;2023-02-21T14:51:48;9.63;;;5.25;;
37407;SDS011;24866;50.248;8.252;2023-02-21T14:54:47;11.10;;;5.75;;
37407;SDS011;24866;50.248;8.252;2023-02-21T14:57:41;7.85;;;4.57;;
37407;SDS011;24866;50.248;8.252;2023-02-21T15:00:45;10.93;;;6.18;;
37407;SDS011;24866;50.248;8.252;2023-02-21T15:03:28;12.75;;;6.43;;
37407;SDS011;24866;50.248;8.252;2023-02-21T15:06:04;28.77;;;24.23;;
37407;SDS011;24866;50.248;8.252;2023-02-21T15:08:39;24.38;;;21.60;;
37407;SDS011;24866;50.248;8.252;2023-02-21T15:11:22;22.10;;;16.85;;
37407;SDS011;24866;50.248;8.252;2023-02-21T15:14:10;13.45;;;7.72;;
37407;SDS011;24866;50.248;8.252;2023-02-21T15:16:51;10.80;;;7.10;;
37407;SDS011;24866;50.248;8.252;2023-02-21T15:19:25;10.55;;;6.57;;
37407;SDS011;24866;50.248;8.252;2023-02-21T15:22:14;11.80;;;6.80;;
37407;SDS011;24866;50.248;8.252;2023-02-21T15:24:56;13.38;;;7.00;;
37407;SDS011;24866;50.248;8.252;2023-02-21T15:27:53;12.27;;;7.50;;
37407;SDS011;24866;50.248;8.252;2023-02-21T15:30:26;11.13;;;7.47;;
37407;SDS011;24866;50.248;8.252;2023-02-21T15:33:00;13.07;;;7.72;;
37407;SDS011;24866;50.248;8.252;2023-02-21T15:35:36;17.45;;;7.65;;
37407;SDS011;24866;50.248;8.252;2023-02-21T15:38:11;16.58;;;7.88;;
37407;SDS011;24866;50.248;8.252;2023-02-21T15:40:45;17.10;;;8.60;;
37407;SDS011;24866;50.248;8.252;2023-02-21T15:43:24;16.45;;;7.57;;
37407;SDS011;24866;50.248;8.252;2023-02-21T15:45:59;11.18;;;7.00;;
37407;SDS011;24866;50.248;8.252;2023-02-21T15:48:33;13.02;;;7.35;;
37407;SDS011;24866;50.248;8.252;2023-02-21T15:51:04;13.73;;;7.13;;
37407;SDS011;24866;50.248;8.252;2023-02-21T15:53:38;10.57;;;6.72;;
37407;SDS011;24866;50.248;8.252;2023-02-21T15:56:17;12.02;;;6.88;;
37407;SDS011;24866;50.248;8.252;2023-02-21T15:59:02;10.90;;;6.85;;
37407;SDS011;24866;50.248;8.252;2023-02-21T16:01:40;14.20;;;7.40;;
37407;SDS011;24866;50.248;8.252;2023-02-21T16:04:15;13.57;;;7.32;;
37407;SDS011;24866;50.248;8.252;2023-02-21T16:06:49;12.35;;;6.97;;
37407;SDS011;24866;50.248;8.252;2023-02-21T16:09:24;16.05;;;8.02;;